createdAt,value
2023-02-23T00:01:23.837Z,6.50
2023-02-23T00:03:58.094Z,6.50
2023-02-23T00:06:31.860Z,6.50
2023-02-23T00:09:24.216Z,6.50
2023-02-23T00:11:57.415Z,6.50
2023-02-23T00:14:31.054Z,6.40
2023-02-23T00:17:03.216Z,6.50
2023-02-23T00:19:37.647Z,6.50
2023-02-23T00:22:09.484Z,6.50
2023-02-23T00:24:42.588Z,6.50
2023-02-23T00:27:21.171Z,6.50
2023-02-23T00:29:53.034Z,6.50
2023-02-23T00:32:26.456Z,6.50
2023-02-23T00:34:58.341Z,6.50
2023-02-23T00:37:30.194Z,6.50
2023-02-23T00:40:01.909Z,6.50
2023-02-23T00:42:33.664Z,6.50
2023-02-23T00:45:11.293Z,6.50
2023-02-23T00:47:44.603Z,6.60
2023-02-23T00:50:18.768Z,6.60
2023-02-23T00:52:51.335Z,6.60
2023-02-23T00:55:23.046Z,6.60
2023-02-23T00:57:54.757Z,6.50
2023-02-23T01:00:26.512Z,6.50
2023-02-23T01:02:59.649Z,6.50
2023-02-23T01:05:35.102Z,6.50
2023-02-23T01:08:09.444Z,6.50
2023-02-23T01:10:42.971Z,6.50
2023-02-23T01:13:18.011Z,6.50
2023-02-23T01:15:50.306Z,6.40
2023-02-23T01:18:22.396Z,6.40
2023-02-23T01:20:54.112Z,6.30
2023-02-23T01:23:25.830Z,6.30
2023-02-23T01:25:57.880Z,6.30
2023-02-23T01:28:29.588Z,6.20
2023-02-23T01:31:01.441Z,6.20
2023-02-23T01:33:33.337Z,6.10
2023-02-23T01:36:06.134Z,6.10
2023-02-23T01:38:37.940Z,6.10
2023-02-23T01:41:09.641Z,6.00
2023-02-23T01:43:57.226Z,6.00
2023-02-23T01:46:32.253Z,6.00
2023-02-23T01:49:06.187Z,6.00
2023-02-23T01:51:42.960Z,6.00
2023-02-23T01:54:21.240Z,5.90
2023-02-23T01:56:59.258Z,5.90
2023-02-23T01:59:39.700Z,5.90
2023-02-23T02:02:13.270Z,5.90
2023-02-23T02:04:45.371Z,5.90
2023-02-23T02:07:25.698Z,5.80
2023-02-23T02:10:10.977Z,5.80
2023-02-23T02:12:51.931Z,5.80
2023-02-23T02:15:29.997Z,5.80
2023-02-23T02:18:25.142Z,5.70
2023-02-23T02:21:05.997Z,5.70
2023-02-23T02:23:53.361Z,5.80
2023-02-23T02:26:33.477Z,5.70
2023-02-23T02:29:42.116Z,5.70
2023-02-23T02:32:28.766Z,5.70
2023-02-23T02:35:48.736Z,5.60
2023-02-23T02:38:26.624Z,5.70
2023-02-23T02:41:03.865Z,5.60
2023-02-23T02:43:51.155Z,5.60
2023-02-23T02:46:41.602Z,5.60
2023-02-23T02:49:30.390Z,5.60
2023-02-23T02:52:23.152Z,5.60
2023-02-23T02:55:02.622Z,5.50
2023-02-23T02:57:35.231Z,5.50
2023-02-23T03:00:26.170Z,5.50
2023-02-23T03:03:16.609Z,5.40
2023-02-23T03:06:10.710Z,5.40
2023-02-23T03:09:36.030Z,5.40
2023-02-23T03:12:41.759Z,5.40
2023-02-23T03:16:00.759Z,5.40
2023-02-23T03:19:19.028Z,5.40
2023-02-23T03:22:13.081Z,5.40
2023-02-23T03:25:13.730Z,5.30
2023-02-23T03:28:20.993Z,5.30
2023-02-23T03:31:26.167Z,5.30
2023-02-23T03:34:34.559Z,5.30
2023-02-23T03:37:48.779Z,5.30
2023-02-23T03:40:39.158Z,5.30
2023-02-23T03:43:34.590Z,5.20
2023-02-23T03:46:29.341Z,5.20
2023-02-23T03:49:23.685Z,5.20
2023-02-23T03:52:24.600Z,5.20
2023-02-23T03:55:22.180Z,5.10
2023-02-23T03:58:19.796Z,5.10
2023-02-23T04:01:14.272Z,5.10
2023-02-23T04:04:07.404Z,5.20
2023-02-23T04:07:03.928Z,5.10
2023-02-23T04:09:54.985Z,5.10
2023-02-23T04:13:05.321Z,5.10
2023-02-23T04:15:51.084Z,5.10
2023-02-23T04:18:31.175Z,5.10
2023-02-23T04:21:04.737Z,5.10
2023-02-23T04:23:40.661Z,5.10
2023-02-23T04:26:12.480Z,5.10
2023-02-23T04:28:44.212Z,5.10
2023-02-23T04:31:18.896Z,5.10
2023-02-23T04:33:51.175Z,5.10
2023-02-23T04:36:24.213Z,5.10
2023-02-23T04:38:55.950Z,5.10
2023-02-23T04:41:27.740Z,5.10
2023-02-23T04:43:59.430Z,5.10
2023-02-23T04:46:31.164Z,5.10
2023-02-23T04:49:03.735Z,5.10
2023-02-23T04:51:36.627Z,5.00
2023-02-23T04:54:08.366Z,5.00
2023-02-23T04:56:40.222Z,5.00
2023-02-23T04:59:12.102Z,5.00
2023-02-23T05:01:43.907Z,5.00
2023-02-23T05:04:15.693Z,5.10
2023-02-23T05:06:47.866Z,5.00
2023-02-23T05:09:19.689Z,5.00
2023-02-23T05:11:51.401Z,5.00
2023-02-23T05:14:23.454Z,5.00
2023-02-23T05:16:55.198Z,5.00
2023-02-23T05:19:27.114Z,5.00
2023-02-23T05:21:58.788Z,5.00
2023-02-23T05:24:30.498Z,5.00
2023-02-23T05:27:02.208Z,5.00
2023-02-23T05:29:34.162Z,5.10
2023-02-23T05:32:06.300Z,5.10
2023-02-23T05:34:39.159Z,5.10
2023-02-23T05:37:10.956Z,5.10
2023-02-23T05:39:43.013Z,5.10
2023-02-23T05:42:14.715Z,5.00
2023-02-23T05:44:46.405Z,5.00
2023-02-23T05:47:18.342Z,5.10
2023-02-23T05:49:50.060Z,5.10
2023-02-23T05:52:23.039Z,5.10
2023-02-23T05:54:54.745Z,5.10
2023-02-23T05:57:27.426Z,5.10
2023-02-23T05:59:59.133Z,5.10
2023-02-23T06:02:31.049Z,5.10
2023-02-23T06:05:03.126Z,5.10
2023-02-23T06:07:34.886Z,5.10
2023-02-23T06:10:06.914Z,5.10
2023-02-23T06:12:38.668Z,5.10
2023-02-23T06:15:10.881Z,5.10
2023-02-23T06:17:42.637Z,5.10
2023-02-23T06:20:14.749Z,5.10
2023-02-23T06:22:46.510Z,5.20
2023-02-23T06:25:18.215Z,5.20
2023-02-23T06:27:50.319Z,5.20
2023-02-23T06:30:22.744Z,5.20
2023-02-23T06:32:54.567Z,5.20
2023-02-23T06:35:27.425Z,5.30
2023-02-23T06:38:00.418Z,5.30
2023-02-23T06:40:33.065Z,5.30
2023-02-23T06:43:05.198Z,5.40
2023-02-23T06:45:36.939Z,5.40
2023-02-23T06:48:08.736Z,5.50
2023-02-23T06:50:40.432Z,5.50
2023-02-23T06:53:12.388Z,5.50
2023-02-23T06:55:44.184Z,5.60
2023-02-23T06:58:15.936Z,5.70
2023-02-23T07:00:47.641Z,5.70
2023-02-23T07:03:19.366Z,5.80
2023-02-23T07:05:52.451Z,5.90
2023-02-23T07:08:24.149Z,6.00
2023-02-23T07:10:57.660Z,6.00
2023-02-23T07:13:29.391Z,6.10
2023-02-23T07:16:01.276Z,6.20
2023-02-23T07:18:33.140Z,6.30
2023-02-23T07:21:05.034Z,6.30
2023-02-23T07:23:36.796Z,6.40
2023-02-23T07:26:09.723Z,6.50
2023-02-23T07:28:41.904Z,6.60
2023-02-23T07:31:13.662Z,6.60
2023-02-23T07:33:45.458Z,7.70
2023-02-23T07:36:17.171Z,6.70
2023-02-23T07:38:49.007Z,6.80
2023-02-23T07:41:21.169Z,6.90
2023-02-23T07:43:52.982Z,6.90
2023-02-23T07:46:24.984Z,6.90
2023-02-23T07:48:56.828Z,7.00
2023-02-23T07:51:28.552Z,7.10
2023-02-23T07:54:04.943Z,7.10
2023-02-23T07:56:36.657Z,7.10
2023-02-23T07:59:08.482Z,7.20
2023-02-23T08:01:40.546Z,7.20
2023-02-23T08:04:12.329Z,7.20
2023-02-23T08:06:44.355Z,7.30
2023-02-23T08:09:16.072Z,7.30
2023-02-23T08:11:47.740Z,7.40
2023-02-23T08:14:23.548Z,7.50
2023-02-23T08:16:55.355Z,7.60
2023-02-23T08:19:27.786Z,7.60
2023-02-23T08:21:59.761Z,7.70
2023-02-23T08:24:31.632Z,7.80
2023-02-23T08:27:03.571Z,7.80
2023-02-23T08:29:35.292Z,7.90
2023-02-23T08:32:07.188Z,7.90
2023-02-23T08:34:43.264Z,7.90
2023-02-23T08:37:15.076Z,7.90
2023-02-23T08:39:46.957Z,7.90
2023-02-23T08:42:19.157Z,8.00
2023-02-23T08:44:51.043Z,8.10
2023-02-23T08:47:24.341Z,8.10
2023-02-23T08:49:56.082Z,8.20
2023-02-23T08:52:28.831Z,8.10
2023-02-23T08:55:00.600Z,8.10
2023-02-23T08:57:36.210Z,8.20
2023-02-23T09:00:16.642Z,8.20
2023-02-23T09:02:48.508Z,8.20
2023-02-23T09:05:20.526Z,8.20
2023-02-23T09:07:52.372Z,8.30
2023-02-23T09:10:27.697Z,8.20
2023-02-23T09:12:59.430Z,8.20
2023-02-23T09:15:31.212Z,8.30
2023-02-23T09:18:03.370Z,8.20
2023-02-23T09:20:35.099Z,8.30
2023-02-23T09:23:06.784Z,8.30
2023-02-23T09:25:43.597Z,8.40
2023-02-23T09:28:16.990Z,8.50
2023-02-23T09:30:48.829Z,8.50
2023-02-23T09:33:20.584Z,8.50
2023-02-23T09:35:52.382Z,8.60
2023-02-23T09:38:24.573Z,8.70
2023-02-23T09:40:56.351Z,8.80
2023-02-23T09:43:42.515Z,8.80
2023-02-23T09:46:45.333Z,9.00
2023-02-23T09:49:25.638Z,9.10
2023-02-23T09:52:00.271Z,9.20
2023-02-23T09:54:36.088Z,9.30
2023-02-23T09:57:16.560Z,9.40
2023-02-23T09:59:48.397Z,9.50
2023-02-23T10:02:30.883Z,9.60
2023-02-23T10:05:06.982Z,9.60
2023-02-23T10:07:45.741Z,9.60
2023-02-23T10:10:36.885Z,9.70
2023-02-23T10:13:27.571Z,9.60
2023-02-23T10:16:13.760Z,9.60
2023-02-23T10:19:13.026Z,9.60
2023-02-23T10:21:51.402Z,9.60
2023-02-23T10:24:30.877Z,9.70
2023-02-23T10:27:21.063Z,9.70
2023-02-23T10:29:55.627Z,9.80
2023-02-23T10:32:38.056Z,9.70
2023-02-23T10:35:15.215Z,9.60
2023-02-23T10:37:48.218Z,9.60
2023-02-23T10:40:27.679Z,9.60
2023-02-23T10:43:02.634Z,9.50
2023-02-23T10:45:44.615Z,9.60
2023-02-23T10:48:26.404Z,9.60
2023-02-23T10:51:03.056Z,9.60
2023-02-23T10:53:36.558Z,9.60
2023-02-23T10:56:13.894Z,9.60
2023-02-23T10:58:50.403Z,9.60
2023-02-23T11:02:00.309Z,9.60
2023-02-23T11:04:35.222Z,9.60
2023-02-23T11:07:24.393Z,9.60
2023-02-23T11:09:57.409Z,9.70
2023-02-23T11:12:43.470Z,9.70
2023-02-23T11:15:32.074Z,9.70
2023-02-23T11:18:07.689Z,9.80
2023-02-23T11:20:41.709Z,9.90
2023-02-23T11:23:34.275Z,10.00
2023-02-23T11:26:31.109Z,10.10
2023-02-23T11:29:15.091Z,10.20
2023-02-23T11:31:50.579Z,10.30
2023-02-23T11:34:33.672Z,10.40
2023-02-23T11:37:21.309Z,10.30
2023-02-23T11:39:55.646Z,10.50
2023-02-23T11:42:33.097Z,10.40
2023-02-23T11:45:20.584Z,10.40
2023-02-23T11:47:58.681Z,10.30
2023-02-23T11:50:34.037Z,10.30
2023-02-23T11:53:31.496Z,10.40
2023-02-23T11:56:11.131Z,10.40
2023-02-23T11:58:55.519Z,10.40
2023-02-23T12:01:46.826Z,10.50
2023-02-23T12:04:31.096Z,10.60
2023-02-23T12:07:41.426Z,10.70
2023-02-23T12:10:28.086Z,10.60
2023-02-23T12:13:17.970Z,10.70
2023-02-23T12:16:13.333Z,10.70
2023-02-23T12:18:56.018Z,10.70
2023-02-23T12:21:47.300Z,10.70
2023-02-23T12:24:26.211Z,10.60
2023-02-23T12:27:14.010Z,10.60
2023-02-23T12:30:06.878Z,10.70
2023-02-23T12:33:05.470Z,10.80
2023-02-23T12:35:46.796Z,10.80
2023-02-23T12:38:55.726Z,10.90
2023-02-23T12:41:36.780Z,10.90
2023-02-23T12:44:17.386Z,10.90
2023-02-23T12:46:53.438Z,10.90
2023-02-23T12:49:46.036Z,11.00
2023-02-23T12:52:22.398Z,11.00
2023-02-23T12:54:55.137Z,11.10
2023-02-23T12:57:32.232Z,11.10
2023-02-23T13:00:32.848Z,11.20
2023-02-23T13:03:49.419Z,11.20
2023-02-23T13:06:44.040Z,11.10
2023-02-23T13:09:40.327Z,11.20
2023-02-23T13:12:26.041Z,11.20
2023-02-23T13:15:23.743Z,11.30
2023-02-23T13:18:18.992Z,11.30
2023-02-23T13:21:09.279Z,11.40
2023-02-23T13:24:02.233Z,11.50
2023-02-23T13:27:00.337Z,11.50
2023-02-23T13:29:48.697Z,11.50
2023-02-23T13:32:29.251Z,11.50
2023-02-23T13:35:08.106Z,11.50
2023-02-23T13:37:50.374Z,11.50
2023-02-23T13:41:03.718Z,11.60
2023-02-23T13:43:42.314Z,11.80
2023-02-23T13:46:44.596Z,11.90
2023-02-23T13:49:38.006Z,12.00
2023-02-23T13:52:20.999Z,11.90
2023-02-23T13:55:05.415Z,11.80
2023-02-23T13:57:37.218Z,11.70
2023-02-23T14:00:20.009Z,11.60
2023-02-23T14:02:53.511Z,11.50
2023-02-23T14:05:27.793Z,11.50
2023-02-23T14:08:05.690Z,11.40
2023-02-23T14:10:40.607Z,11.40
2023-02-23T14:13:18.057Z,11.30
2023-02-23T14:16:08.026Z,11.30
2023-02-23T14:19:03.898Z,11.40
2023-02-23T14:22:18.513Z,11.50
2023-02-23T14:25:27.507Z,11.50
2023-02-23T14:28:01.565Z,11.60
2023-02-23T14:30:50.972Z,11.50
2023-02-23T14:33:41.877Z,11.50
2023-02-23T14:36:25.659Z,11.50
2023-02-23T14:38:57.339Z,11.60
2023-02-23T14:41:53.414Z,11.70
2023-02-23T14:44:31.681Z,11.80
2023-02-23T14:47:13.982Z,11.90
2023-02-23T14:49:49.939Z,11.90
2023-02-23T14:52:34.926Z,11.90
2023-02-23T14:55:12.655Z,12.00
2023-02-23T14:57:44.658Z,12.10
2023-02-23T15:00:23.365Z,12.10
2023-02-23T15:03:03.014Z,12.10
2023-02-23T15:05:43.765Z,12.20
2023-02-23T15:08:18.780Z,12.20
2023-02-23T15:10:59.748Z,12.10
2023-02-23T15:16:15.296Z,12.00
2023-02-23T15:19:30.746Z,12.00
2023-02-23T15:22:04.752Z,11.80
2023-02-23T15:24:44.725Z,11.70
2023-02-23T15:27:20.358Z,11.00
2023-02-23T15:29:52.193Z,11.60
2023-02-23T15:32:25.621Z,11.60
2023-02-23T15:34:57.605Z,11.60
2023-02-23T15:37:38.208Z,11.50
2023-02-23T15:40:17.156Z,11.50
2023-02-23T15:42:50.826Z,11.50
2023-02-23T15:45:43.457Z,11.40
2023-02-23T15:48:20.925Z,11.40
2023-02-23T15:50:57.412Z,11.30
2023-02-23T15:53:32.436Z,11.20
2023-02-23T15:56:25.602Z,11.20
2023-02-23T15:59:05.578Z,11.20
2023-02-23T16:01:43.516Z,11.10
2023-02-23T16:04:15.305Z,11.00
2023-02-23T16:06:53.946Z,11.00
2023-02-23T16:09:29.452Z,10.90
2023-02-23T16:12:10.668Z,10.90
2023-02-23T16:14:49.289Z,10.80
2023-02-23T16:17:29.154Z,10.80
2023-02-23T16:20:16.653Z,10.80
2023-02-23T16:22:54.844Z,10.60
2023-02-23T16:25:28.419Z,10.60
2023-02-23T16:28:04.595Z,10.60
2023-02-23T16:30:43.317Z,10.60
2023-02-23T16:33:23.945Z,10.60
2023-02-23T16:36:10.833Z,10.60
2023-02-23T16:38:58.389Z,10.60
2023-02-23T16:41:32.823Z,10.50
2023-02-23T16:44:07.014Z,10.50
2023-02-23T16:46:54.051Z,10.50
2023-02-23T16:49:25.777Z,10.40
2023-02-23T16:51:58.726Z,10.40
2023-02-23T16:54:30.413Z,10.40
2023-02-23T16:57:06.039Z,10.40
2023-02-23T16:59:38.288Z,10.40
2023-02-23T17:02:13.721Z,10.30
2023-02-23T17:04:49.736Z,10.30
2023-02-23T17:07:23.162Z,10.20
2023-02-23T17:09:55.781Z,10.10
2023-02-23T17:12:27.540Z,10.10
2023-02-23T17:14:59.726Z,10.00
2023-02-23T17:17:31.429Z,9.90
2023-02-23T17:20:05.642Z,9.80
2023-02-23T17:22:37.362Z,9.80
2023-02-23T17:25:09.732Z,9.70
2023-02-23T17:27:41.458Z,9.70
2023-02-23T17:30:13.819Z,9.70
2023-02-23T17:32:46.423Z,9.70
2023-02-23T17:35:18.400Z,9.70
2023-02-23T17:37:50.406Z,9.70
2023-02-23T17:40:28.952Z,9.70
2023-02-23T17:43:01.997Z,9.60
2023-02-23T17:45:33.701Z,9.60
2023-02-23T17:48:05.721Z,8.50
2023-02-23T17:50:37.713Z,9.60
2023-02-23T17:53:09.470Z,9.60
2023-02-23T17:55:41.198Z,9.60
2023-02-23T17:58:13.996Z,9.60
2023-02-23T18:00:45.944Z,9.60
2023-02-23T18:03:17.786Z,9.60
2023-02-23T18:05:49.625Z,9.60
2023-02-23T18:08:21.418Z,9.60
2023-02-23T18:10:54.514Z,9.60
2023-02-23T18:13:27.526Z,9.60
2023-02-23T18:16:06.137Z,9.60
2023-02-23T18:18:40.635Z,9.60
2023-02-23T18:21:15.053Z,9.50
2023-02-23T18:23:47.266Z,9.50
2023-02-23T18:26:22.520Z,9.50
2023-02-23T18:28:55.811Z,9.40
2023-02-23T18:31:28.377Z,9.40
2023-02-23T18:34:01.523Z,9.40
2023-02-23T18:36:35.715Z,9.30
2023-02-23T18:39:09.063Z,9.30
2023-02-23T18:41:42.027Z,9.30
2023-02-23T18:44:16.122Z,9.30
2023-02-23T18:46:47.845Z,9.20
2023-02-23T18:49:21.977Z,9.20
2023-02-23T18:51:54.441Z,9.10
2023-02-23T18:54:26.643Z,9.10
2023-02-23T18:56:58.401Z,9.10
2023-02-23T18:59:30.121Z,9.00
2023-02-23T19:02:01.847Z,9.00
2023-02-23T19:04:33.884Z,8.90
2023-02-23T19:07:05.657Z,8.90
2023-02-23T19:09:40.804Z,8.80
2023-02-23T19:12:14.563Z,8.80
2023-02-23T19:14:49.650Z,8.80
2023-02-23T19:17:21.747Z,8.80
2023-02-23T19:19:55.598Z,8.80
2023-02-23T19:22:29.087Z,8.70
2023-02-23T19:25:00.908Z,8.70
2023-02-23T19:27:34.442Z,8.70
2023-02-23T19:30:09.860Z,8.60
2023-02-23T19:32:42.634Z,8.60
2023-02-23T19:35:14.926Z,8.60
2023-02-23T19:37:49.279Z,8.50
2023-02-23T19:40:23.874Z,8.50
2023-02-23T19:42:55.627Z,8.50
2023-02-23T19:45:27.446Z,8.50
2023-02-23T19:47:59.289Z,8.50
2023-02-23T19:50:31.618Z,8.50
2023-02-23T19:53:03.311Z,8.50
2023-02-23T19:55:35.023Z,8.50
2023-02-23T19:58:06.725Z,8.50
2023-02-23T20:00:39.526Z,8.50
2023-02-23T20:03:14.243Z,8.50
2023-02-23T20:05:45.952Z,8.40
2023-02-23T20:08:19.380Z,8.40
2023-02-23T20:10:52.007Z,8.40
2023-02-23T20:13:23.818Z,8.40
2023-02-23T20:16:06.755Z,8.40
2023-02-23T20:18:39.820Z,8.30
2023-02-23T20:21:17.651Z,8.30
2023-02-23T20:23:50.436Z,8.30
2023-02-23T20:26:26.501Z,8.30
2023-02-23T20:28:58.691Z,8.30
2023-02-23T20:31:35.109Z,8.30
2023-02-23T20:34:09.873Z,8.30
2023-02-23T20:36:41.666Z,8.30
2023-02-23T20:39:16.912Z,8.30
2023-02-23T20:41:53.345Z,8.30
2023-02-23T20:44:25.647Z,8.30
2023-02-23T20:46:57.384Z,8.30
2023-02-23T20:49:29.679Z,8.30
2023-02-23T20:52:01.863Z,8.30
2023-02-23T20:54:33.683Z,8.20
2023-02-23T20:57:08.982Z,8.20
2023-02-23T20:59:41.082Z,8.20
2023-02-23T21:02:14.913Z,8.20
2023-02-23T21:04:46.613Z,8.20
2023-02-23T21:07:18.457Z,8.20
2023-02-23T21:09:50.170Z,8.20
2023-02-23T21:12:22.072Z,8.20
2023-02-23T21:14:54.105Z,8.20
2023-02-23T21:17:25.893Z,8.20
2023-02-23T21:19:57.627Z,8.10
2023-02-23T21:22:29.475Z,8.10
2023-02-23T21:25:01.256Z,8.10
2023-02-23T21:27:33.104Z,8.10
2023-02-23T21:30:06.296Z,8.10
2023-02-23T21:32:41.466Z,8.10
2023-02-23T21:35:13.459Z,8.10
2023-02-23T21:37:45.817Z,8.10
2023-02-23T21:40:20.702Z,8.10
2023-02-23T21:42:52.489Z,8.10
2023-02-23T21:45:24.284Z,8.10
2023-02-23T21:47:56.037Z,8.10
2023-02-23T21:50:27.752Z,8.10
2023-02-23T21:52:59.465Z,8.10
2023-02-23T21:55:31.245Z,8.10
2023-02-23T21:58:03.008Z,8.10
2023-02-23T22:00:35.842Z,8.10
2023-02-23T22:03:09.506Z,8.10
2023-02-23T22:05:41.377Z,8.10
2023-02-23T22:08:15.642Z,8.10
2023-02-23T22:10:48.196Z,8.10
2023-02-23T22:13:20.042Z,8.00
2023-02-23T22:15:58.957Z,7.90
2023-02-23T22:18:30.797Z,7.90
2023-02-23T22:21:05.432Z,7.90
2023-02-23T22:23:38.307Z,7.80
2023-02-23T22:26:10.677Z,7.80
2023-02-23T22:28:43.298Z,7.70
2023-02-23T22:31:15.561Z,7.70
2023-02-23T22:33:47.454Z,7.70
2023-02-23T22:36:19.269Z,7.70
2023-02-23T22:38:51.066Z,7.70
2023-02-23T22:41:23.248Z,7.70
2023-02-23T22:43:56.622Z,7.60
2023-02-23T22:46:28.383Z,7.70
2023-02-23T22:49:00.111Z,7.60
2023-02-23T22:51:32.234Z,7.60
2023-02-23T22:54:05.867Z,7.60
2023-02-23T22:56:38.213Z,7.60
2023-02-23T22:59:10.901Z,7.70
2023-02-23T23:01:43.006Z,7.60
2023-02-23T23:04:15.120Z,7.60
2023-02-23T23:06:47.703Z,7.60
2023-02-23T23:09:21.129Z,7.60
2023-02-23T23:11:53.729Z,7.60
2023-02-23T23:14:25.427Z,7.60
2023-02-23T23:16:57.170Z,7.50
2023-02-23T23:19:29.185Z,7.50
2023-02-23T23:22:01.133Z,7.50
2023-02-23T23:24:32.995Z,7.50
2023-02-23T23:27:08.173Z,7.50
2023-02-23T23:29:41.021Z,7.50
2023-02-23T23:32:18.115Z,7.50
2023-02-23T23:34:49.946Z,7.50
2023-02-23T23:37:21.657Z,7.50
2023-02-23T23:39:59.312Z,7.50
2023-02-23T23:42:31.729Z,7.50
2023-02-23T23:45:05.959Z,7.50
2023-02-23T23:47:37.718Z,7.50
2023-02-23T23:50:10.814Z,7.50
2023-02-23T23:52:44.280Z,7.50
2023-02-23T23:55:16.134Z,7.50
2023-02-23T23:57:47.876Z,7.40
